»·PEaware :: N911VU KSNA-KSMO

N911VU :: KSNA-KSMO

FLIGHT INFORMATION

Flight Status: Arrived
Operator: Privately registered:
United States
More flights under this callsign
Pilot: Austin P. (20876)
Aircraft: SOCATA TBM-900
(TBM9)
More flights by this aircraft type
Origin: KSNA John Wayne-Orange Co
United States
Destination: KSMO Santa Monica Mun
United States
More flights between these airports :: More routes between these airports
Route: +SLI V459 DARTS
File this flight plan on PilotEdge
Remarks:
Altitude:
(Current/Filed)
8,000ft
Speed:
(Current/Filed)
220kts
Departed: 04-Dec-18 04:08 PM
Arrived: 04-Dec-18 04:29 PM
Distance/Time
Traveled:
35nm/0:21
Distance/Time
To Go:
Arrived

Flight Plot

Page will automatically refresh every two minutes.


Map Options




Map Legend


Flown Route
Filed Route
Departure Airport
Arrival Airport
Navaid (VOR, NDB)
Fix

Horizontal Profiles

Position Reports

Time Latitude Longitude Heading Altitude Ground
Speed
04-Dec-18 15:46 33.667178 -117.872126 225 59ft 0kts
04-Dec-18 15:47 33.667178 -117.872126 225 59ft 0kts
04-Dec-18 15:48 33.667178 -117.872126 225 59ft 0kts
04-Dec-18 15:49 33.667178 -117.872126 225 59ft 0kts
04-Dec-18 15:50 33.667178 -117.872126 225 59ft 0kts
04-Dec-18 15:51 33.667178 -117.872126 225 59ft 0kts
04-Dec-18 15:52 33.667178 -117.872126 225 59ft 0kts
04-Dec-18 15:53 33.667178 -117.872126 225 59ft 0kts
04-Dec-18 15:54 33.667178 -117.872126 225 59ft 0kts
04-Dec-18 15:55 33.667178 -117.872126 225 59ft 0kts
04-Dec-18 15:56 33.667178 -117.872126 225 59ft 0kts
04-Dec-18 15:57 33.667178 -117.872126 225 59ft 0kts
04-Dec-18 15:58 33.667178 -117.872126 225 59ft 0kts
04-Dec-18 15:58 33.667178 -117.872126 225 59ft 0kts
04-Dec-18 15:59 33.667095 -117.872477 307 59ft 1kts
04-Dec-18 16:00 33.668964 -117.871105 43 59ft 10kts
04-Dec-18 16:02 33.672324 -117.867987 27 59ft 14kts
04-Dec-18 16:02 33.675206 -117.865785 26 59ft 15kts
04-Dec-18 16:03 33.679048 -117.863353 26 59ft 14kts
04-Dec-18 16:05 33.679943 -117.863586 298 59ft 0kts
04-Dec-18 16:05 33.679943 -117.863586 298 59ft 0kts
04-Dec-18 16:06 33.679963 -117.863632 298 59ft 1kts
04-Dec-18 16:07 33.674364 -117.867882 209 152ft 105kts
04-Dec-18 16:08 33.641285 -117.874871 186 2190ft 144kts
04-Dec-18 16:09 33.599059 -117.879383 186 4262ft 163kts
04-Dec-18 16:10 33.547705 -117.884844 186 5016ft 210kts
04-Dec-18 16:11 33.487549 -117.891485 186 5065ft 218kts
04-Dec-18 16:12 33.464921 -117.931635 321 6115ft 209kts
04-Dec-18 16:13 33.523482 -117.931006 352 7634ft 219kts
04-Dec-18 16:14 33.585625 -117.953780 334 8011ft 251kts
04-Dec-18 16:15 33.649404 -117.985915 333 7996ft 242kts
04-Dec-18 16:16 33.710623 -118.017347 333 8000ft 239kts
04-Dec-18 16:17 33.768872 -118.047314 332 9002ft 222kts
04-Dec-18 16:18 33.826411 -118.079513 330 10010ft 243kts
04-Dec-18 16:19 33.888446 -118.115155 331 9996ft 250kts
04-Dec-18 16:20 33.951742 -118.151593 331 9817ft 259kts
04-Dec-18 16:21 34.017508 -118.189504 332 9351ft 263kts
04-Dec-18 16:22 34.081448 -118.226428 332 8507ft 249kts
04-Dec-18 16:23 34.140367 -118.264259 302 7083ft 236kts
04-Dec-18 16:24 34.116305 -118.321576 222 4973ft 219kts
04-Dec-18 16:25 34.076031 -118.375066 230 2644ft 208kts
04-Dec-18 16:26 34.041177 -118.421479 223 1126ft 154kts
04-Dec-18 16:27 34.019726 -118.446697 224 197ft 79kts
04-Dec-18 16:28 34.014248 -118.452073 53 133ft 4kts
04-Dec-18 16:29 34.016652 -118.449240 44 146ft 13kts
04-Dec-18 16:30 34.018103 -118.446862 44 156ft 3kts
04-Dec-18 16:31 34.018764 -118.446389 314 158ft 0kts
04-Dec-18 16:32 34.018764 -118.446389 314 158ft 0kts
04-Dec-18 16:33 34.018764 -118.446389 314 158ft 0kts
04-Dec-18 16:34 34.018764 -118.446389 314 158ft 0kts
04-Dec-18 16:35 34.018764 -118.446389 314 158ft 0kts
04-Dec-18 16:36 34.018764 -118.446389 314 158ft 0kts
04-Dec-18 16:37 34.018764 -118.446389 314 158ft 0kts
04-Dec-18 16:38 34.018764 -118.446389 314 158ft 0kts
04-Dec-18 16:39 34.018764 -118.446389 314 158ft 0kts
04-Dec-18 16:40 34.018764 -118.446389 314 158ft 0kts
04-Dec-18 16:41 34.018764 -118.446389 314 158ft 0kts
04-Dec-18 16:42 34.018764 -118.446389 314 158ft 0kts

Navigation Log

Ident Type
Flight plan parsing failed, navigation log unavailable